Time;durP1;ratioP1;P1;durP2;ratioP2;P2;SDS_P1;SDS_P2;PMS_P1;PMS_P2;Temp;Humidity;BMP_temperature;BMP_pressure;BME280_temperature;BME280_humidity;BME280_pressure;Samples;Min_cycle;Max_cycle;Signal;HPM_P1;HPM_P2
2021/01/28 00:00:26;;;;;;;7.00;5.10;;;21.50;40.20;;;;;;5079341;28;20125;-49
2021/01/28 00:02:52;;;;;;;8.60;4.32;;;21.50;40.20;;;;;;5075458;28;20032;-50
2021/01/28 00:05:19;;;;;;;7.95;4.97;;;21.50;40.30;;;;;;5075173;28;20540;-47
2021/01/28 00:07:45;;;;;;;7.00;4.75;;;21.40;40.20;;;;;;5085399;28;20028;-50
2021/01/28 00:10:11;;;;;;;7.32;4.75;;;21.40;40.20;;;;;;5072685;28;20042;-51
2021/01/28 00:12:37;;;;;;;6.22;4.65;;;21.40;40.20;;;;;;5078966;28;20427;-51
2021/01/28 00:15:05;;;;;;;5.00;4.32;;;21.40;40.20;;;;;;5078091;28;20032;-49
2021/01/28 00:17:30;;;;;;;5.55;4.50;;;21.40;40.20;;;;;;5077584;28;20028;-50
2021/01/28 00:19:56;;;;;;;6.75;4.63;;;21.40;40.20;;;;;;5073014;28;20020;-51
2021/01/28 00:22:21;;;;;;;6.00;4.75;;;21.40;40.20;;;;;;5082233;28;20036;-50
2021/01/28 00:24:47;;;;;;;5.80;4.70;;;21.40;40.20;;;;;;5085971;28;20434;-49
2021/01/28 00:27:12;;;;;;;5.50;4.82;;;21.30;40.20;;;;;;5086219;28;20595;-48
2021/01/28 00:29:38;;;;;;;7.63;5.38;;;21.30;40.20;;;;;;5076048;28;20066;-51
2021/01/28 00:32:05;;;;;;;5.75;4.43;;;21.30;40.20;;;;;;5073797;28;20873;-44
2021/01/28 00:34:31;;;;;;;6.32;4.47;;;21.30;40.20;;;;;;5074695;28;20435;-49
2021/01/28 00:36:57;;;;;;;5.45;4.68;;;21.30;40.20;;;;;;5072703;28;20083;-49
2021/01/28 00:39:22;;;;;;;6.65;4.65;;;21.20;40.20;;;;;;5074065;28;20024;-50
2021/01/28 00:41:48;;;;;;;6.03;4.40;;;21.20;40.20;;;;;;5074058;28;20062;-47
2021/01/28 00:44:13;;;;;;;7.07;5.03;;;21.20;40.20;;;;;;5076569;28;20024;-50
2021/01/28 00:46:40;;;;;;;7.07;4.88;;;21.20;40.20;;;;;;5086868;28;20028;-57
2021/01/28 00:49:06;;;;;;;6.80;4.28;;;21.20;40.20;;;;;;5090799;28;20028;-50
2021/01/28 00:51:32;;;;;;;5.93;5.10;;;21.20;40.20;;;;;;5093896;28;20084;-50
2021/01/28 00:53:58;;;;;;;6.20;4.70;;;21.10;40.10;;;;;;5091548;28;20074;-50
2021/01/28 00:56:24;;;;;;;8.45;5.20;;;21.10;40.20;;;;;;5085089;28;20059;-50
2021/01/28 00:58:50;;;;;;;7.57;5.10;;;21.10;40.20;;;;;;5084730;28;20036;-49
2021/01/28 01:01:16;;;;;;;6.88;5.13;;;21.10;40.20;;;;;;5084500;28;20038;-50
2021/01/28 01:03:41;;;;;;;5.68;4.32;;;21.10;40.20;;;;;;5086526;28;20020;-47
2021/01/28 01:06:07;;;;;;;6.20;4.57;;;21.00;40.10;;;;;;5085833;28;20055;-50
2021/01/28 01:08:33;;;;;;;6.03;5.20;;;21.10;40.20;;;;;;5085115;28;20396;-49
2021/01/28 01:11:05;;;;;;;6.57;4.78;;;21.00;40.20;;;;;;5081701;28;20048;-50
2021/01/28 01:13:33;;;;;;;7.55;5.15;;;21.00;40.20;;;;;;5083494;28;20035;-50
2021/01/28 01:15:59;;;;;;;6.63;5.00;;;21.00;40.20;;;;;;5085960;28;20130;-49
2021/01/28 01:18:28;;;;;;;6.07;4.57;;;21.00;40.20;;;;;;5086653;28;20501;-51
2021/01/28 01:20:54;;;;;;;6.28;4.57;;;21.00;40.20;;;;;;5084454;28;20036;-50
2021/01/28 01:23:20;;;;;;;5.40;4.78;;;21.00;40.70;;;;;;5083917;28;20028;-50
2021/01/28 01:25:46;;;;;;;5.72;3.80;;;21.00;40.20;;;;;;5086755;28;20028;-50
2021/01/28 01:28:12;;;;;;;5.82;4.28;;;21.00;40.20;;;;;;5082932;28;20458;-51
2021/01/28 01:30:39;;;;;;;6.63;4.35;;;20.90;40.20;;;;;;5086881;28;20024;-50
2021/01/28 01:33:05;;;;;;;6.35;4.55;;;20.90;40.20;;;;;;5085916;28;20396;-50
2021/01/28 01:35:31;;;;;;;4.70;4.00;;;20.90;40.30;;;;;;5085812;28;20032;-49
2021/01/28 01:37:57;;;;;;;6.25;4.63;;;20.90;40.30;;;;;;5086240;28;20040;-50
2021/01/28 01:40:36;;;;;;;4.85;3.85;;;20.90;40.20;;;;;;5085061;28;20085;-50
2021/01/28 01:43:03;;;;;;;4.68;3.83;;;20.90;40.20;;;;;;5085734;28;20365;-49
2021/01/28 01:45:33;;;;;;;6.00;4.50;;;20.80;40.20;;;;;;5085645;28;20598;-51
2021/01/28 01:48:14;;;;;;;5.97;4.60;;;20.80;40.20;;;;;;5086566;28;20039;-51
2021/01/28 01:51:04;;;;;;;5.05;3.72;;;20.80;40.70;;;;;;5083009;28;20060;-49
2021/01/28 01:53:33;;;;;;;4.75;4.20;;;20.80;40.20;;;;;;5083760;28;20032;-50
2021/01/28 01:56:05;;;;;;;4.43;3.40;;;20.80;40.20;;;;;;5082630;28;20465;-50
2021/01/28 01:58:45;;;;;;;5.30;4.80;;;20.80;40.20;;;;;;5088408;28;20036;-49
2021/01/28 02:01:12;;;;;;;4.93;3.58;;;20.80;40.20;;;;;;5087876;28;20020;-50
2021/01/28 02:03:39;;;;;;;4.10;3.45;;;20.80;40.20;;;;;;5090510;28;20492;-50
2021/01/28 02:06:23;;;;;;;6.22;4.55;;;20.70;40.20;;;;;;5084609;28;20036;-47
2021/01/28 02:08:50;;;;;;;5.95;4.05;;;20.70;40.20;;;;;;5086750;28;20032;-50
2021/01/28 02:11:16;;;;;;;4.88;3.63;;;20.70;40.20;;;;;;5088055;28;20075;-50
2021/01/28 02:13:45;;;;;;;5.78;3.80;;;20.70;40.20;;;;;;5088489;28;20073;-47
2021/01/28 02:16:13;;;;;;;5.63;3.88;;;20.70;40.20;;;;;;5089820;28;20450;-49
2021/01/28 02:18:39;;;;;;;3.83;3.50;;;20.70;40.20;;;;;;5088493;28;20085;-49
2021/01/28 02:21:22;;;;;;;5.45;4.00;;;20.70;40.20;;;;;;5080913;28;20040;-52
2021/01/28 02:24:02;;;;;;;4.85;3.97;;;20.70;40.20;;;;;;5085164;28;20049;-48
2021/01/28 02:26:31;;;;;;;4.30;3.90;;;20.60;40.30;;;;;;5088893;28;20539;-48
2021/01/28 02:28:56;;;;;;;4.93;3.80;;;20.60;40.30;;;;;;5088101;28;20031;-47
2021/01/28 02:31:24;;;;;;;4.70;3.60;;;20.60;40.30;;;;;;5084586;28;20393;-50
2021/01/28 02:33:56;;;;;;;6.05;3.90;;;20.60;40.30;;;;;;5088487;28;20057;-47
2021/01/28 02:36:34;;;;;;;3.95;3.55;;;20.60;40.30;;;;;;5087039;28;20404;-50
2021/01/28 02:38:59;;;;;;;4.95;3.78;;;20.60;40.30;;;;;;5086790;28;20048;-50
2021/01/28 02:41:25;;;;;;;4.53;4.13;;;20.60;40.30;;;;;;5087179;28;20032;-50
2021/01/28 02:43:52;;;;;;;4.10;3.70;;;20.60;40.40;;;;;;5086960;28;20932;-49
2021/01/28 02:46:19;;;;;;;3.78;3.22;;;20.60;40.40;;;;;;5085957;28;20516;-49
2021/01/28 02:48:48;;;;;;;5.80;3.83;;;20.50;40.30;;;;;;5087462;28;20092;-50
2021/01/28 02:51:13;;;;;;;5.40;4.10;;;20.50;40.30;;;;;;5088224;28;20386;-47
2021/01/28 02:53:43;;;;;;;4.85;3.42;;;20.50;40.30;;;;;;5087625;28;20081;-51
2021/01/28 02:56:09;;;;;;;4.93;3.72;;;20.50;40.30;;;;;;5085342;28;20115;-49
2021/01/28 02:58:35;;;;;;;4.53;3.75;;;20.50;40.30;;;;;;5086314;28;20157;-49
2021/01/28 03:01:01;;;;;;;4.05;3.22;;;20.50;40.40;;;;;;5086907;28;20127;-50
2021/01/28 03:03:27;;;;;;;4.28;3.75;;;20.50;40.40;;;;;;5088646;28;20076;-50
2021/01/28 03:05:53;;;;;;;5.80;4.22;;;20.50;40.30;;;;;;5088159;28;20032;-49
2021/01/28 03:08:20;;;;;;;5.45;4.28;;;20.50;40.40;;;;;;5087101;28;20035;-50
2021/01/28 03:10:46;;;;;;;4.63;3.42;;;20.40;40.30;;;;;;5083506;28;20047;-49
2021/01/28 03:13:12;;;;;;;4.63;3.67;;;20.40;40.40;;;;;;5088963;28;20035;-51
2021/01/28 03:15:38;;;;;;;4.05;3.47;;;20.40;40.40;;;;;;5086338;28;20373;-49
2021/01/28 03:18:06;;;;;;;3.97;3.53;;;20.40;40.30;;;;;;5085016;28;20028;-50
2021/01/28 03:20:31;;;;;;;3.80;3.00;;;20.40;40.40;;;;;;5086196;28;20158;-51
2021/01/28 03:22:57;;;;;;;4.25;3.20;;;20.40;40.40;;;;;;5084371;28;20143;-51
2021/01/28 03:25:24;;;;;;;4.13;3.72;;;20.40;40.40;;;;;;5089285;28;20493;-50
2021/01/28 03:27:50;;;;;;;5.00;3.53;;;20.40;40.40;;;;;;5085541;28;20036;-48
2021/01/28 03:30:25;;;;;;;4.03;3.42;;;20.40;40.50;;;;;;5086045;28;20032;-50
2021/01/28 03:32:51;;;;;;;5.53;3.55;;;20.30;40.40;;;;;;5085804;28;20140;-51
2021/01/28 03:35:19;;;;;;;3.58;3.03;;;20.40;40.50;;;;;;5088952;28;20111;-49
2021/01/28 03:37:44;;;;;;;4.75;3.60;;;20.40;40.50;;;;;;5086363;28;20024;-50
2021/01/28 03:40:11;;;;;;;3.88;3.15;;;20.30;40.50;;;;;;5088139;28;20538;-51
2021/01/28 03:42:37;;;;;;;5.13;3.22;;;20.30;40.50;;;;;;5087589;28;20036;-50
2021/01/28 03:45:04;;;;;;;4.18;3.38;;;20.30;40.40;;;;;;5085104;28;20050;-49
2021/01/28 03:47:30;;;;;;;3.72;3.20;;;20.30;40.50;;;;;;5086108;28;20024;-49
2021/01/28 03:49:56;;;;;;;4.85;3.85;;;20.30;40.40;;;;;;5087160;28;20036;-51
2021/01/28 03:52:22;;;;;;;3.88;3.08;;;20.30;40.50;;;;;;5083818;28;20111;-50
2021/01/28 03:54:47;;;;;;;3.70;3.08;;;20.30;40.50;;;;;;5088646;28;20028;-49
2021/01/28 03:57:13;;;;;;;3.72;2.65;;;20.30;40.50;;;;;;5084807;28;20032;-50
2021/01/28 03:59:39;;;;;;;4.07;3.50;;;20.30;40.50;;;;;;5084479;28;20648;-51
2021/01/28 04:02:04;;;;;;;4.30;3.53;;;20.20;40.50;;;;;;5086644;28;20485;-51
2021/01/28 04:04:30;;;;;;;5.15;2.97;;;20.20;40.40;;;;;;5085193;28;20078;-51
2021/01/28 04:06:55;;;;;;;3.90;3.50;;;20.30;40.50;;;;;;5085507;28;20070;-50
2021/01/28 04:09:21;;;;;;;4.43;3.45;;;20.20;40.40;;;;;;5085163;28;20384;-50
2021/01/28 04:11:46;;;;;;;3.63;2.60;;;20.20;40.50;;;;;;5084839;28;20052;-50
2021/01/28 04:14:12;;;;;;;3.20;2.65;;;20.20;40.40;;;;;;5087803;28;20103;-50
2021/01/28 04:16:38;;;;;;;5.68;3.55;;;20.20;40.50;;;;;;5083677;28;20099;-46
2021/01/28 04:19:04;;;;;;;3.58;3.28;;;20.20;40.50;;;;;;5085913;28;20083;-47
2021/01/28 04:21:30;;;;;;;3.35;2.95;;;20.20;40.50;;;;;;5087240;28;20032;-50
2021/01/28 04:23:56;;;;;;;3.70;3.17;;;20.20;40.50;;;;;;5087774;28;20115;-51
2021/01/28 04:26:22;;;;;;;3.70;3.22;;;20.20;40.50;;;;;;5084851;28;20107;-50
2021/01/28 04:28:48;;;;;;;2.72;2.47;;;20.20;40.60;;;;;;5082789;28;20480;-49
2021/01/28 04:31:13;;;;;;;5.10;3.20;;;20.20;40.50;;;;;;5087258;28;20028;-51
2021/01/28 04:33:39;;;;;;;3.55;3.25;;;20.10;40.50;;;;;;5087553;28;20477;-47
2021/01/28 04:36:05;;;;;;;3.50;2.83;;;20.20;40.50;;;;;;5084750;28;20124;-50
2021/01/28 04:38:30;;;;;;;3.53;2.78;;;20.10;40.60;;;;;;5085188;28;20469;-51
2021/01/28 04:41:24;;;;;;;3.80;3.30;;;20.10;40.60;;;;;;5085235;28;20062;-52
2021/01/28 04:43:51;;;;;;;3.53;2.60;;;20.10;40.60;;;;;;5085274;28;20024;-47
2021/01/28 04:46:34;;;;;;;4.10;3.20;;;20.10;40.60;;;;;;5084611;28;20115;-50
2021/01/28 04:49:03;;;;;;;3.80;3.25;;;20.10;40.60;;;;;;5083701;28;20044;-51
2021/01/28 04:51:31;;;;;;;3.45;3.15;;;20.10;40.50;;;;;;5083975;28;20040;-51
2021/01/28 04:54:23;;;;;;;3.42;2.50;;;20.10;40.50;;;;;;5081857;28;20032;-50
2021/01/28 04:56:49;;;;;;;;;;;20.10;40.60;;;;;;5086910;28;20036;-50
2021/01/28 04:59:31;;;;;;;2.95;2.15;;;20.00;40.60;;;;;;5085407;28;19912;-51
2021/01/28 05:01:59;;;;;;;3.90;3.05;;;20.00;40.60;;;;;;5084711;28;20055;-51
2021/01/28 05:04:39;;;;;;;3.53;2.65;;;20.00;40.60;;;;;;5084169;28;20046;-52
2021/01/28 05:07:08;;;;;;;2.95;2.65;;;20.00;40.60;;;;;;5087073;28;20044;-50
2021/01/28 05:09:34;;;;;;;3.15;2.83;;;20.00;40.60;;;;;;5084871;28;20057;-51
2021/01/28 05:12:00;;;;;;;3.05;2.75;;;20.00;40.70;;;;;;5085994;28;20032;-49
2021/01/28 05:14:29;;;;;;;3.90;2.90;;;20.00;40.50;;;;;;5083441;28;20115;-50
2021/01/28 05:16:57;;;;;;;3.03;2.72;;;20.00;40.40;;;;;;5085454;28;20038;-47
2021/01/28 05:19:46;;;;;;;3.85;2.80;;;20.00;40.60;;;;;;5085139;28;20052;-47
2021/01/28 05:22:26;;;;;;;2.58;2.38;;;20.00;40.60;;;;;;5095230;28;20047;-50
2021/01/28 05:25:11;;;;;;;3.05;2.85;;;20.00;40.60;;;;;;5095807;28;20027;-50
2021/01/28 05:27:38;;;;;;;2.75;2.38;;;20.00;40.60;;;;;;5091844;28;20032;-51
2021/01/28 05:30:08;;;;;;;2.60;2.17;;;20.00;40.60;;;;;;5082777;28;20020;-49
2021/01/28 05:32:34;;;;;;;2.83;2.03;;;19.90;40.60;;;;;;5085636;28;20032;-51
2021/01/28 05:35:26;;;;;;;2.85;2.58;;;20.00;40.60;;;;;;5088463;28;20051;-50
2021/01/28 05:38:06;;;;;;;2.17;1.83;;;19.90;40.60;;;;;;5082019;28;20454;-51
2021/01/28 05:40:32;;;;;;;2.92;2.53;;;19.90;40.60;;;;;;5090021;28;20031;-50
2021/01/28 05:42:58;;;;;;;3.67;2.67;;;19.90;40.60;;;;;;5089487;28;20179;-50
2021/01/28 05:45:24;;;;;;;3.08;2.63;;;19.90;40.60;;;;;;5088654;28;20032;-50
2021/01/28 05:47:50;;;;;;;2.88;2.10;;;19.90;40.60;;;;;;5089745;28;20028;-49
2021/01/28 05:50:31;;;;;;;4.30;2.42;;;19.90;40.60;;;;;;5088370;28;20550;-50
2021/01/28 05:53:09;;;;;;;2.80;2.20;;;19.90;40.60;;;;;;5088156;28;20027;-48
2021/01/28 05:55:34;;;;;;;3.70;2.45;;;19.90;40.70;;;;;;5083760;28;20444;-50
2021/01/28 05:58:15;;;;;;;1.98;1.70;;;19.90;40.70;;;;;;5086702;28;20064;-50
2021/01/28 06:00:53;;;;;;;2.50;1.83;;;19.90;40.70;;;;;;5089547;28;20040;-50
2021/01/28 06:03:31;;;;;;;2.50;2.08;;;19.90;40.60;;;;;;5090896;28;20111;-52
2021/01/28 06:06:18;;;;;;;2.67;1.80;;;19.90;40.60;;;;;;5088457;28;20484;-50
2021/01/28 06:09:07;;;;;;;2.83;2.53;;;19.90;40.50;;;;;;5089015;28;20097;-51
2021/01/28 06:11:57;;;;;;;3.47;2.22;;;19.90;40.40;;;;;;5086687;28;20029;-50
2021/01/28 06:14:53;;;;;;;2.50;1.90;;;19.80;40.60;;;;;;5086172;28;20090;-48
2021/01/28 06:17:47;;;;;;;2.22;1.75;;;19.80;40.50;;;;;;5088945;28;20055;-49
2021/01/28 06:20:41;;;;;;;2.17;1.98;;;19.80;40.50;;;;;;5086743;28;20089;-49
2021/01/28 06:23:30;;;;;;;2.53;1.70;;;19.80;40.50;;;;;;5090907;28;20032;-50
2021/01/28 06:26:30;;;;;;;1.92;1.70;;;19.80;40.50;;;;;;5085794;28;20017;-49
2021/01/28 06:29:17;;;;;;;1.50;1.40;;;19.80;40.60;;;;;;5087930;28;20028;-51
2021/01/28 06:32:12;;;;;;;1.98;1.77;;;19.80;40.60;;;;;;5104368;27;20025;-50
2021/01/28 06:35:05;;;;;;;2.42;1.38;;;19.80;40.60;;;;;;5086756;28;20077;-50
2021/01/28 06:38:05;;;;;;;2.05;1.58;;;19.80;40.60;;;;;;5088322;28;20024;-46
2021/01/28 06:40:32;;;;;;;1.95;1.63;;;19.80;40.60;;;;;;5087964;28;20047;-49
2021/01/28 06:43:04;;;;;;;2.10;1.83;;;19.80;40.60;;;;;;5085199;28;20501;-49
2021/01/28 06:45:36;;;;;;;1.60;1.48;;;19.80;40.60;;;;;;5086169;28;20104;-48
2021/01/28 06:48:24;;;;;;;1.92;1.40;;;19.90;40.60;;;;;;5087326;28;20062;-49
2021/01/28 06:51:00;;;;;;;2.67;1.25;;;20.10;40.20;;;;;;5085044;28;20451;-47
2021/01/28 06:53:45;;;;;;;1.63;1.10;;;20.20;39.90;;;;;;5088415;28;20036;-49
2021/01/28 06:56:24;;;;;;;1.88;1.50;;;20.40;39.60;;;;;;5083556;28;20040;-49
2021/01/28 06:59:14;;;;;;;1.10;0.90;;;20.50;39.40;;;;;;5085362;28;20028;-51
2021/01/28 07:02:02;;;;;;;2.30;1.13;;;20.60;39.20;;;;;;5087305;28;20598;-47
2021/01/28 07:04:32;;;;;;;1.55;1.10;;;20.70;39.10;;;;;;5085484;28;20042;-50
2021/01/28 07:07:03;;;;;;;1.95;1.30;;;20.80;39.00;;;;;;5084580;28;20046;-51
2021/01/28 07:09:41;;;;;;;1.65;0.95;;;20.80;38.90;;;;;;5087033;28;20028;-50
2021/01/28 07:12:10;;;;;;;1.52;1.02;;;20.80;38.90;;;;;;5087969;28;20541;-50
2021/01/28 07:14:37;;;;;;;1.55;1.00;;;20.90;38.90;;;;;;5087048;28;20051;-46
2021/01/28 07:17:27;;;;;;;1.05;0.65;;;20.90;38.90;;;;;;5087117;28;20056;-47
2021/01/28 07:20:00;;;;;;;1.27;1.10;;;20.90;39.00;;;;;;5083898;28;20029;-50
2021/01/28 07:22:40;;;;;;;2.35;0.60;;;20.90;39.00;;;;;;5088198;28;20040;-51
2021/01/28 07:25:32;;;;;;;1.23;0.90;;;20.90;39.10;;;;;;5079634;28;20093;-52
2021/01/28 07:28:00;;;;;;;1.45;1.05;;;20.90;39.30;;;;;;5084975;28;20441;-50
2021/01/28 07:30:44;;;;;;;1.85;0.63;;;20.90;39.20;;;;;;5087000;28;20031;-50
2021/01/28 07:33:25;;;;;;;1.98;0.85;;;21.00;39.20;;;;;;5083981;28;20034;-50
2021/01/28 07:36:22;;;;;;;1.10;0.70;;;21.00;39.20;;;;;;5087398;28;20405;-51
2021/01/28 07:38:53;;;;;;;4.30;0.98;;;21.00;39.10;;;;;;5084778;28;20051;-48
2021/01/28 07:41:30;;;;;;;3.60;1.05;;;21.00;39.00;;;;;;5087802;28;20036;-51
2021/01/28 07:44:25;;;;;;;0.93;0.60;;;21.00;39.00;;;;;;5087016;28;20040;-50
2021/01/28 07:46:55;;;;;;;2.30;0.70;;;21.00;39.00;;;;;;5076611;28;20115;-51
2021/01/28 07:49:32;;;;;;;1.90;0.90;;;21.00;39.00;;;;;;5083556;28;20593;-50
2021/01/28 07:52:00;;;;;;;2.08;0.85;;;21.00;39.00;;;;;;5081075;28;20112;-49
2021/01/28 07:54:26;;;;;;;1.98;1.00;;;21.00;39.10;;;;;;5088116;28;20417;-48
2021/01/28 07:56:57;;;;;;;1.45;1.23;;;20.90;39.10;;;;;;5084555;28;20039;-49
2021/01/28 07:59:39;;;;;;;1.70;0.88;;;20.90;39.20;;;;;;5086167;28;20421;-50
2021/01/28 08:02:29;;;;;;;1.30;0.45;;;20.90;39.30;;;;;;5085707;28;20084;-50
2021/01/28 08:05:03;;;;;;;1.85;0.63;;;20.90;39.30;;;;;;5087890;28;20100;-50
2021/01/28 08:07:36;;;;;;;2.65;0.90;;;20.80;39.30;;;;;;5084977;28;20028;-50
2021/01/28 08:10:07;;;;;;;1.45;0.85;;;20.80;39.30;;;;;;5085814;28;20439;-50
2021/01/28 08:12:48;;;;;;;1.33;0.57;;;20.80;39.40;;;;;;5080677;28;20047;-48
2021/01/28 08:15:20;;;;;;;1.15;0.50;;;20.70;39.50;;;;;;5084928;28;20056;-48
2021/01/28 08:17:46;;;;;;;1.17;0.55;;;20.70;39.70;;;;;;5087081;28;20036;-50
2021/01/28 08:20:24;;;;;;;1.17;0.63;;;20.60;39.60;;;;;;5083616;28;20059;-48
2021/01/28 08:22:59;;;;;;;1.65;0.70;;;20.60;39.80;;;;;;5085750;28;20024;-50
2021/01/28 08:25:28;;;;;;;1.77;0.80;;;20.60;39.80;;;;;;5082605;28;20035;-51
2021/01/28 08:27:54;;;;;;;1.95;0.90;;;20.60;39.90;;;;;;5084408;28;20497;-50
2021/01/28 08:30:26;;;;;;;1.50;0.65;;;20.50;39.90;;;;;;5085439;28;20103;-50
2021/01/28 08:32:58;;;;;;;1.13;0.70;;;20.50;39.90;;;;;;5083632;28;20085;-49
2021/01/28 08:35:35;;;;;;;;;;;20.50;39.90;;;;;;5080766;28;20035;-49
2021/01/28 08:38:10;;;;;;;1.83;1.03;;;20.50;40.00;;;;;;5079170;28;20406;-49
2021/01/28 08:40:36;;;;;;;3.38;0.98;;;20.60;39.90;;;;;;5083226;28;20024;-50
2021/01/28 08:43:13;;;;;;;2.25;0.75;;;20.60;39.90;;;;;;5085914;28;20059;-51
2021/01/28 08:45:40;;;;;;;2.00;1.23;;;20.60;39.80;;;;;;5086462;28;20024;-49
2021/01/28 08:48:10;;;;;;;2.03;1.15;;;20.60;39.90;;;;;;5082760;28;20051;-52
2021/01/28 08:50:37;;;;;;;2.63;1.20;;;20.60;40.00;;;;;;5083486;28;20027;-51
2021/01/28 08:53:20;;;;;;;1.95;1.20;;;20.60;40.00;;;;;;5084443;28;20414;-49
2021/01/28 08:55:45;;;;;;;2.67;1.48;;;20.70;40.10;;;;;;5085244;28;20039;-49
2021/01/28 08:58:16;;;;;;;2.20;1.20;;;20.70;40.30;;;;;;5086078;28;20503;-50
2021/01/28 09:00:49;;;;;;;2.38;1.30;;;20.60;40.30;;;;;;5083175;28;20056;-52
2021/01/28 09:03:22;;;;;;;3.92;1.30;;;20.60;40.30;;;;;;5083608;28;20024;-51
2021/01/28 09:05:50;;;;;;;2.83;1.98;;;20.60;40.50;;;;;;5085933;28;20027;-49
2021/01/28 09:08:35;;;;;;;2.53;1.80;;;20.60;40.60;;;;;;5084448;28;20028;-48
2021/01/28 09:11:14;;;;;;;3.67;1.63;;;20.60;40.70;;;;;;5089006;28;20115;-49
2021/01/28 09:13:40;;;;;;;3.78;2.38;;;20.60;40.70;;;;;;5090839;28;20028;-46
2021/01/28 09:16:15;;;;;;;3.33;2.05;;;20.60;40.80;;;;;;5091599;28;20089;-46
2021/01/28 09:18:50;;;;;;;3.30;2.15;;;20.60;40.90;;;;;;5088406;28;20028;-47
2021/01/28 09:21:19;;;;;;;3.05;2.65;;;20.60;40.90;;;;;;5089639;28;20095;-50
2021/01/28 09:24:17;;;;;;;2.42;1.98;;;20.60;40.80;;;;;;5089911;28;20105;-50
2021/01/28 09:26:43;;;;;;;4.40;2.42;;;20.70;40.70;;;;;;5075140;28;20109;-50
2021/01/28 09:29:30;;;;;;;3.47;2.53;;;20.90;40.40;;;;;;5083219;28;20071;-50
2021/01/28 09:32:06;;;;;;;3.10;2.72;;;21.00;40.30;;;;;;5086507;28;20149;-50
2021/01/28 09:34:32;;;;;;;2.35;2.13;;;21.20;40.10;;;;;;5088578;28;20104;-52
2021/01/28 09:37:04;;;;;;;3.38;2.50;;;21.30;40.00;;;;;;5082512;28;20457;-50
2021/01/28 09:39:39;;;;;;;5.03;3.10;;;21.40;40.00;;;;;;5090279;28;20032;-50
2021/01/28 09:42:28;;;;;;;4.35;2.80;;;21.40;39.80;;;;;;5090453;28;20439;-50
2021/01/28 09:45:09;;;;;;;4.95;2.42;;;21.60;39.70;;;;;;5088230;28;20386;-52
2021/01/28 09:47:36;;;;;;;3.15;2.85;;;21.60;39.70;;;;;;5090023;28;20043;-52
2021/01/28 09:50:08;;;;;;;3.00;2.72;;;21.60;39.80;;;;;;5090327;28;20473;-50
2021/01/28 09:52:41;;;;;;;6.35;3.72;;;21.60;39.80;;;;;;5086858;28;20066;-49
2021/01/28 09:55:08;;;;;;;5.07;3.17;;;21.70;39.60;;;;;;5095812;28;20489;-53
2021/01/28 09:57:33;;;;;;;4.30;3.90;;;21.60;39.70;;;;;;5091373;28;20028;-49
2021/01/28 10:00:00;;;;;;;4.75;3.28;;;21.60;39.70;;;;;;5091615;28;20670;-48
2021/01/28 10:02:36;;;;;;;3.50;3.20;;;21.60;39.70;;;;;;5087940;28;20090;-47
2021/01/28 10:05:02;;;;;;;3.67;3.38;;;21.50;39.70;;;;;;5086774;28;20390;-53
2021/01/28 10:07:28;;;;;;;4.07;3.50;;;21.50;39.80;;;;;;5085246;28;20029;-50
2021/01/28 10:09:53;;;;;;;3.78;3.17;;;21.50;39.80;;;;;;5082548;28;20523;-49
2021/01/28 10:12:20;;;;;;;3.40;3.10;;;21.50;39.90;;;;;;5081986;28;20756;-51
2021/01/28 10:14:46;;;;;;;3.70;2.92;;;21.50;39.90;;;;;;5087328;28;20525;-49
2021/01/28 10:17:13;;;;;;;4.22;3.72;;;21.50;40.00;;;;;;5088716;28;20059;-46
2021/01/28 10:19:42;;;;;;;4.65;3.17;;;21.40;40.20;;;;;;5086025;28;20027;-51
2021/01/28 10:22:09;;;;;;;4.07;3.42;;;21.40;40.30;;;;;;5087637;28;20484;-47
2021/01/28 10:24:35;;;;;;;3.45;3.00;;;21.30;40.40;;;;;;5086168;28;20024;-52
2021/01/28 10:27:01;;;;;;;2.53;2.33;;;21.40;40.50;;;;;;5089226;28;20035;-49
2021/01/28 10:29:26;;;;;;;2.72;2.22;;;21.40;40.40;;;;;;5086208;28;20439;-50
2021/01/28 10:31:52;;;;;;;3.55;2.70;;;21.40;40.50;;;;;;5086467;28;20032;-50
2021/01/28 10:34:17;;;;;;;2.50;2.30;;;21.40;40.70;;;;;;5084325;28;20046;-52
2021/01/28 10:36:43;;;;;;;4.40;2.50;;;21.30;40.70;;;;;;5086325;28;20033;-47
2021/01/28 10:39:08;;;;;;;3.30;2.45;;;21.30;40.70;;;;;;5078657;28;20759;-51
2021/01/28 10:41:34;;;;;;;2.50;2.00;;;21.30;40.70;;;;;;5080307;28;20032;-51
2021/01/28 10:44:00;;;;;;;2.42;2.08;;;21.30;40.70;;;;;;5081691;28;20591;-48
2021/01/28 10:46:25;;;;;;;3.92;2.70;;;21.40;40.70;;;;;;5084677;28;20105;-50
2021/01/28 10:48:51;;;;;;;5.40;2.25;;;21.30;40.80;;;;;;5088960;28;20027;-50
2021/01/28 10:51:17;;;;;;;2.75;1.95;;;21.30;40.70;;;;;;5081524;28;20528;-47
2021/01/28 10:53:42;;;;;;;3.17;1.95;;;21.30;40.70;;;;;;5081039;28;20097;-50
2021/01/28 10:56:08;;;;;;;2.80;2.00;;;21.30;40.80;;;;;;5081935;28;20366;-48
2021/01/28 10:58:34;;;;;;;4.05;2.10;;;21.30;40.80;;;;;;5088815;28;20039;-49
2021/01/28 11:01:00;;;;;;;2.78;2.42;;;21.30;40.90;;;;;;5082064;28;20374;-49
2021/01/28 11:03:25;;;;;;;3.20;2.10;;;21.20;40.90;;;;;;5084668;28;20111;-48
2021/01/28 11:05:51;;;;;;;2.38;2.00;;;21.20;40.80;;;;;;5085399;28;20046;-44
2021/01/28 11:08:17;;;;;;;6.20;1.83;;;21.20;41.00;;;;;;5085072;28;20036;-51
2021/01/28 11:10:44;;;;;;;2.20;2.00;;;21.20;41.00;;;;;;5084101;28;20177;-51
2021/01/28 11:13:10;;;;;;;2.85;1.70;;;21.20;41.00;;;;;;5083228;28;20058;-50
2021/01/28 11:15:38;;;;;;;1.88;1.67;;;21.20;41.10;;;;;;5087559;28;20079;-53
2021/01/28 11:18:07;;;;;;;2.65;1.65;;;21.20;41.10;;;;;;5086391;28;20024;-49
2021/01/28 11:20:34;;;;;;;2.35;1.50;;;21.20;41.40;;;;;;5083865;28;20028;-50
2021/01/28 11:23:00;;;;;;;1.98;1.40;;;21.10;41.20;;;;;;5086193;28;20138;-47
2021/01/28 11:25:27;;;;;;;2.15;1.63;;;21.10;41.20;;;;;;5080695;28;20091;-50
2021/01/28 11:27:53;;;;;;;2.47;1.55;;;21.10;41.30;;;;;;5082320;28;20380;-47
2021/01/28 11:30:22;;;;;;;2.85;1.67;;;21.10;41.30;;;;;;5083443;28;20106;-51
2021/01/28 11:32:48;;;;;;;3.28;1.70;;;21.10;41.40;;;;;;5079644;28;20025;-48
2021/01/28 11:35:19;;;;;;;2.15;1.50;;;21.20;41.20;;;;;;5087217;28;20067;-50
2021/01/28 11:37:47;;;;;;;2.35;1.90;;;21.10;41.30;;;;;;5084047;28;20035;-45
2021/01/28 11:40:23;;;;;;;2.65;1.85;;;21.00;41.70;;;;;;5085665;28;20127;-50
2021/01/28 11:42:49;;;;;;;2.13;1.77;;;21.00;41.80;;;;;;5086470;28;20047;-45
2021/01/28 11:45:17;;;;;;;4.88;1.83;;;21.00;41.90;;;;;;5084369;28;20514;-53
2021/01/28 11:47:42;;;;;;;2.65;1.83;;;21.00;41.60;;;;;;5080362;28;20400;-49
2021/01/28 11:50:10;;;;;;;2.00;1.80;;;20.90;41.80;;;;;;5084529;28;20155;-51
2021/01/28 11:52:35;;;;;;;2.80;1.80;;;20.90;41.90;;;;;;5084156;28;20040;-52
2021/01/28 11:55:02;;;;;;;2.38;2.03;;;21.00;42.20;;;;;;5085934;28;20051;-51
2021/01/28 11:57:27;;;;;;;2.80;1.80;;;21.00;41.90;;;;;;5082503;28;20089;-51
2021/01/28 11:59:53;;;;;;;2.17;1.40;;;21.00;41.70;;;;;;5085093;28;20019;-47
2021/01/28 12:02:18;;;;;;;2.58;1.50;;;21.20;41.70;;;;;;5083410;28;20040;-46
2021/01/28 12:04:44;;;;;;;2.20;1.45;;;21.40;41.40;;;;;;5087586;28;20431;-50
2021/01/28 12:07:09;;;;;;;1.85;1.60;;;21.50;41.10;;;;;;5085803;28;20557;-48
2021/01/28 12:09:35;;;;;;;1.98;1.80;;;21.70;40.80;;;;;;5084378;28;20043;-49
2021/01/28 12:12:01;;;;;;;1.80;1.30;;;21.90;40.70;;;;;;5084657;28;20039;-47
2021/01/28 12:14:27;;;;;;;4.38;1.70;;;21.90;40.50;;;;;;5080691;28;20142;-45
2021/01/28 12:16:52;;;;;;;2.58;1.48;;;21.90;40.50;;;;;;5082331;28;20432;-49
2021/01/28 12:19:18;;;;;;;3.17;1.65;;;21.90;40.60;;;;;;5081864;28;20020;-46
2021/01/28 12:21:44;;;;;;;2.25;1.50;;;22.00;40.60;;;;;;5086502;28;20032;-47
2021/01/28 12:24:10;;;;;;;2.33;1.55;;;22.00;40.60;;;;;;5084820;28;20433;-51
2021/01/28 12:26:35;;;;;;;2.00;1.13;;;22.10;40.40;;;;;;5087080;28;20119;-50
2021/01/28 12:29:01;;;;;;;1.67;1.25;;;22.10;40.50;;;;;;5076371;28;20028;-49
2021/01/28 12:31:26;;;;;;;1.80;1.52;;;22.10;40.60;;;;;;5082220;28;20093;-47
2021/01/28 12:33:52;;;;;;;1.77;1.20;;;22.10;40.60;;;;;;5086349;28;20066;-45
2021/01/28 12:36:18;;;;;;;2.05;1.10;;;22.10;40.50;;;;;;5084245;28;20044;-47
2021/01/28 12:38:43;;;;;;;1.88;1.52;;;22.10;40.60;;;;;;5083056;28;20043;-47
2021/01/28 12:41:09;;;;;;;3.25;0.80;;;22.10;40.70;;;;;;5077644;28;20039;-51
2021/01/28 12:43:34;;;;;;;1.88;1.20;;;22.10;40.60;;;;;;5081790;28;20043;-50
2021/01/28 12:46:00;;;;;;;2.30;1.45;;;22.10;40.70;;;;;;5083275;28;20032;-50
2021/01/28 12:48:26;;;;;;;1.60;1.08;;;22.10;40.70;;;;;;5080138;28;20027;-46
2021/01/28 12:50:52;;;;;;;1.55;1.20;;;22.00;40.60;;;;;;5082885;28;20026;-43
2021/01/28 12:53:18;;;;;;;2.45;0.95;;;22.00;40.60;;;;;;5085326;28;20032;-47
2021/01/28 12:55:43;;;;;;;1.38;1.02;;;22.10;40.70;;;;;;5084952;28;20032;-47
2021/01/28 12:58:10;;;;;;;2.72;1.40;;;22.10;40.70;;;;;;5085280;28;20408;-51
2021/01/28 13:00:37;;;;;;;1.40;0.98;;;22.10;40.80;;;;;;5082357;28;20166;-48
2021/01/28 13:03:03;;;;;;;1.83;1.08;;;22.00;40.80;;;;;;5084645;28;20036;-47
2021/01/28 13:05:29;;;;;;;1.67;1.33;;;22.00;40.90;;;;;;5081903;28;20409;-47